createdAt,value
2023-02-18T00:00:43.621Z,1011.5
2023-02-18T00:01:59.635Z,1011.5
2023-02-18T00:03:15.996Z,1011.5
2023-02-18T00:04:32.176Z,1011.5
2023-02-18T00:05:48.364Z,1011.5
2023-02-18T00:07:04.557Z,1011.5
2023-02-18T00:08:20.579Z,1011.5
2023-02-18T00:09:35.783Z,1011.5
2023-02-18T00:10:52.141Z,1011.5
2023-02-18T00:12:08.313Z,1011.5
2023-02-18T00:13:24.502Z,1011.5
2023-02-18T00:14:40.701Z,1011.5
2023-02-18T00:15:56.878Z,1011.5
2023-02-18T00:17:12.914Z,1011.5
2023-02-18T00:18:28.291Z,1011.6
2023-02-18T00:19:43.490Z,1011.6
2023-02-18T00:20:58.543Z,1011.5
2023-02-18T00:22:13.907Z,1011.6
2023-02-18T00:23:29.118Z,1011.5
2023-02-18T00:24:44.321Z,1011.6
2023-02-18T00:26:00.510Z,1011.6
2023-02-18T00:27:16.694Z,1011.6
2023-02-18T00:28:32.894Z,1011.6
2023-02-18T00:29:48.897Z,1011.7
2023-02-18T00:31:05.256Z,1011.7
2023-02-18T00:32:21.288Z,1011.7
2023-02-18T00:33:37.644Z,1011.7
2023-02-18T00:34:53.824Z,1011.7
2023-02-18T00:36:09.846Z,1011.7
2023-02-18T00:37:26.191Z,1011.7
2023-02-18T00:38:42.388Z,1011.6
2023-02-18T00:39:58.407Z,1011.6
2023-02-18T00:41:13.597Z,1011.7
2023-02-18T00:42:29.961Z,1011.7
2023-02-18T00:43:46.148Z,1011.7
2023-02-18T00:45:02.171Z,1011.7
2023-02-18T00:46:18.522Z,1011.8
2023-02-18T00:47:34.537Z,1011.8
2023-02-18T00:48:50.724Z,1011.8
2023-02-18T00:50:06.121Z,1011.7
2023-02-18T00:51:21.324Z,1011.8
2023-02-18T00:52:36.362Z,1011.8
2023-02-18T00:53:51.746Z,1011.7
2023-02-18T00:55:07.748Z,1011.7
2023-02-18T00:56:24.121Z,1011.9
2023-02-18T00:57:40.308Z,1011.9
2023-02-18T00:58:56.504Z,1011.9
2023-02-18T01:00:12.679Z,1011.9
2023-02-18T01:01:28.869Z,1011.9
2023-02-18T01:02:44.878Z,1011.8
2023-02-18T01:04:01.235Z,1011.8
2023-02-18T01:05:17.428Z,1011.9
2023-02-18T01:06:33.620Z,1011.8
2023-02-18T01:07:49.616Z,1011.8
2023-02-18T01:09:05.809Z,1011.9
2023-02-18T01:10:21.012Z,1011.9
2023-02-18T01:11:37.376Z,1011.9
2023-02-18T01:12:53.382Z,1011.9
2023-02-18T01:14:09.807Z,1011.9
2023-02-18T01:15:25.813Z,1011.9
2023-02-18T01:16:42.004Z,1011.8
2023-02-18T01:17:58.206Z,1011.9
2023-02-18T01:19:13.590Z,1011.8
2023-02-18T01:20:28.806Z,1011.7
2023-02-18T01:21:44.979Z,1011.8
2023-02-18T01:23:00.197Z,1011.7
2023-02-18T01:24:15.223Z,1011.8
2023-02-18T01:25:31.411Z,1011.8
2023-02-18T01:26:47.606Z,1011.7
2023-02-18T01:28:03.984Z,1011.8
2023-02-18T01:29:20.160Z,1011.8
2023-02-18T01:30:36.352Z,1011.8
2023-02-18T01:31:52.543Z,1011.7
2023-02-18T01:33:08.560Z,1011.8
2023-02-18T01:34:24.925Z,1011.8
2023-02-18T01:35:41.114Z,1011.8
2023-02-18T01:36:57.106Z,1011.8
2023-02-18T01:39:29.489Z,1011.8
2023-02-18T01:40:44.876Z,1011.7
2023-02-18T01:42:01.071Z,1011.8
2023-02-18T01:43:17.255Z,1011.8
2023-02-18T01:44:33.459Z,1011.7
2023-02-18T01:45:49.444Z,1011.8
2023-02-18T01:47:05.820Z,1011.8
2023-02-18T01:48:22.015Z,1011.8
2023-02-18T01:49:38.207Z,1011.8
2023-02-18T01:50:53.242Z,1011.8
2023-02-18T01:52:08.627Z,1011.8
2023-02-18T01:53:24.827Z,1011.8
2023-02-18T01:54:40.039Z,1011.8
2023-02-18T01:55:55.058Z,1011.8
2023-02-18T01:57:11.237Z,1011.8
2023-02-18T01:58:27.612Z,1011.9
2023-02-18T01:59:43.803Z,1012
2023-02-18T02:00:59.996Z,1011.9
2023-02-18T02:02:16.175Z,1011.9
2023-02-18T02:03:32.364Z,1011.8
2023-02-18T02:04:48.569Z,1011.9
2023-02-18T02:06:04.761Z,1011.8
2023-02-18T02:07:20.941Z,1011.8
2023-02-18T02:08:37.132Z,1011.8
2023-02-18T02:09:53.315Z,1011.8
2023-02-18T02:11:09.317Z,1011.8
2023-02-18T02:12:24.719Z,1011.8
2023-02-18T02:13:40.712Z,1011.8
2023-02-18T02:14:57.093Z,1011.7
2023-02-18T02:16:13.273Z,1011.9
2023-02-18T02:17:29.476Z,1011.9
2023-02-18T02:18:45.649Z,1011.8
2023-02-18T02:20:01.846Z,1011.8
2023-02-18T02:21:16.870Z,1011.8
2023-02-18T02:22:32.276Z,1011.9
2023-02-18T02:23:47.299Z,1011.9
2023-02-18T02:25:02.691Z,1011.8
2023-02-18T02:26:18.684Z,1011.9
2023-02-18T02:27:35.060Z,1011.8
2023-02-18T02:28:51.053Z,1011.9
2023-02-18T02:30:07.453Z,1011.9
2023-02-18T02:31:23.638Z,1011.9
2023-02-18T02:32:39.816Z,1011.8
2023-02-18T02:33:55.819Z,1011.8
2023-02-18T02:35:12.200Z,1011.9
2023-02-18T02:36:28.200Z,1011.9
2023-02-18T02:37:44.582Z,1011.9
2023-02-18T02:39:00.774Z,1011.9
2023-02-18T02:40:16.954Z,1011.9
2023-02-18T02:41:32.165Z,1011.9
2023-02-18T02:42:48.345Z,1011.9
2023-02-18T02:44:03.563Z,1011.8
2023-02-18T02:45:19.745Z,1011.9
2023-02-18T02:46:35.940Z,1012
2023-02-18T02:47:52.138Z,1011.9
2023-02-18T02:49:08.327Z,1011.9
2023-02-18T02:50:23.533Z,1012
2023-02-18T02:51:38.739Z,1011.9
2023-02-18T02:52:53.954Z,1011.9
2023-02-18T02:54:09.165Z,1012
2023-02-18T02:55:25.155Z,1012
2023-02-18T02:56:41.549Z,1012.1
2023-02-18T02:57:57.734Z,1012
2023-02-18T02:59:13.922Z,1012
2023-02-18T03:00:30.107Z,1012
2023-02-18T03:01:46.292Z,1012.1
2023-02-18T03:03:02.274Z,1012.1
2023-02-18T03:04:18.678Z,1012.2
2023-02-18T03:05:34.856Z,1012.1
2023-02-18T03:06:51.046Z,1012
2023-02-18T03:08:07.030Z,1012
2023-02-18T03:09:23.221Z,1012
2023-02-18T03:10:38.632Z,1012
2023-02-18T03:11:54.830Z,1012
2023-02-18T03:13:11.016Z,1012
2023-02-18T03:14:27.211Z,1012
2023-02-18T03:15:43.396Z,1012
2023-02-18T03:16:59.376Z,1011.9
2023-02-18T03:18:15.770Z,1011.9
2023-02-18T03:19:30.780Z,1012
2023-02-18T03:20:45.991Z,1011.9
2023-02-18T03:22:02.374Z,1011.9
2023-02-18T03:23:18.564Z,1012
2023-02-18T03:24:33.780Z,1011.9
2023-02-18T03:25:48.985Z,1012
2023-02-18T03:27:04.982Z,1011.9
2023-02-18T03:28:21.370Z,1011.9
2023-02-18T03:29:37.354Z,1011.9
2023-02-18T03:30:53.746Z,1011.9
2023-02-18T03:32:09.727Z,1012
2023-02-18T03:33:25.928Z,1012
2023-02-18T03:34:42.325Z,1012
2023-02-18T03:35:58.501Z,1012
2023-02-18T03:37:14.694Z,1012
2023-02-18T03:38:30.887Z,1011.9
2023-02-18T03:39:47.084Z,1011.9
2023-02-18T03:41:03.041Z,1011.9
2023-02-18T03:42:18.469Z,1011.9
2023-02-18T03:43:34.650Z,1011.9
2023-02-18T03:44:50.632Z,1012
2023-02-18T03:46:06.823Z,1011.9
2023-02-18T03:47:23.012Z,1011.9
2023-02-18T03:48:39.424Z,1012
2023-02-18T03:49:55.385Z,1012
2023-02-18T03:51:10.616Z,1011.9
2023-02-18T03:52:26.030Z,1012
2023-02-18T03:53:42.221Z,1012
2023-02-18T03:54:57.428Z,1012
2023-02-18T03:56:12.421Z,1012
2023-02-18T03:57:28.820Z,1011.9
2023-02-18T03:58:44.803Z,1011.9
2023-02-18T04:00:01.211Z,1011.9
2023-02-18T04:01:17.395Z,1012
2023-02-18T04:02:33.578Z,1012
2023-02-18T04:03:49.762Z,1011.9
2023-02-18T04:05:05.748Z,1011.9
2023-02-18T04:06:22.142Z,1012
2023-02-18T04:07:38.117Z,1012.1
2023-02-18T04:08:54.528Z,1012
2023-02-18T04:10:10.722Z,1012
2023-02-18T04:11:26.911Z,1012
2023-02-18T04:12:42.114Z,1012
2023-02-18T04:13:58.295Z,1012
2023-02-18T04:15:14.501Z,1012
2023-02-18T04:16:30.683Z,1012
2023-02-18T04:17:46.878Z,1012
2023-02-18T04:19:03.059Z,1012.1
2023-02-18T04:20:19.241Z,1012.1
2023-02-18T04:21:34.472Z,1012.1
2023-02-18T04:22:49.663Z,1012.1
2023-02-18T04:24:05.630Z,1012.2
2023-02-18T04:25:22.061Z,1012.1
2023-02-18T04:26:38.017Z,1012.2
2023-02-18T04:27:54.438Z,1012.1
2023-02-18T04:29:10.627Z,1012.2
2023-02-18T04:30:26.822Z,1012.2
2023-02-18T04:31:42.993Z,1012.2
2023-02-18T04:32:59.183Z,1012.2
2023-02-18T04:34:15.368Z,1012.2
2023-02-18T04:35:31.333Z,1012.3
2023-02-18T04:36:47.755Z,1012.3
2023-02-18T04:38:03.951Z,1012.2
2023-02-18T04:39:19.159Z,1012.4
2023-02-18T04:40:35.111Z,1012.4
2023-02-18T04:41:51.531Z,1012.3
2023-02-18T04:43:07.719Z,1012.3
2023-02-18T04:44:23.901Z,1012.3
2023-02-18T04:45:40.104Z,1012.3
2023-02-18T04:46:56.048Z,1012.3
2023-02-18T04:48:11.275Z,1012.3
2023-02-18T04:49:26.705Z,1012.3
2023-02-18T04:50:41.705Z,1012.3
2023-02-18T04:51:56.893Z,1012.4
2023-02-18T04:53:13.233Z,1012.4
2023-02-18T04:54:29.651Z,1012.4
2023-02-18T04:55:45.833Z,1012.3
2023-02-18T04:57:02.029Z,1012.4
2023-02-18T04:58:17.984Z,1012.3
2023-02-18T04:59:34.414Z,1012.4
2023-02-18T05:00:50.595Z,1012.3
2023-02-18T05:02:06.549Z,1012.4
2023-02-18T05:03:22.738Z,1012.3
2023-02-18T05:04:39.160Z,1012.4
2023-02-18T05:05:55.126Z,1012.4
2023-02-18T05:07:11.548Z,1012.4
2023-02-18T05:08:26.757Z,1012.4
2023-02-18T05:09:42.945Z,1012.4
2023-02-18T05:10:59.120Z,1012.3
2023-02-18T05:12:15.310Z,1012.4
2023-02-18T05:13:31.281Z,1012.3
2023-02-18T05:14:47.701Z,1012.4
2023-02-18T05:16:03.884Z,1012.3
2023-02-18T05:17:19.107Z,1012.3
2023-02-18T05:18:34.300Z,1012.3
2023-02-18T05:19:49.530Z,1012.3
2023-02-18T05:21:04.488Z,1012.3
2023-02-18T05:22:20.672Z,1012.2
2023-02-18T05:23:37.105Z,1012.4
2023-02-18T05:24:53.285Z,1012.3
2023-02-18T05:26:09.478Z,1012.3
2023-02-18T05:27:25.447Z,1012.3
2023-02-18T05:28:41.617Z,1012.3
2023-02-18T05:29:58.060Z,1012.3
2023-02-18T05:31:14.247Z,1012.2
2023-02-18T05:32:30.428Z,1012.1
2023-02-18T05:33:46.622Z,1012.1
2023-02-18T05:35:02.806Z,1012.2
2023-02-18T05:36:18.756Z,1012.2
2023-02-18T05:37:35.312Z,1012.1
2023-02-18T05:38:51.500Z,1012.1
2023-02-18T05:40:07.450Z,1012.1
2023-02-18T05:41:23.631Z,1012.1
2023-02-18T05:42:40.066Z,1012.2
2023-02-18T05:43:56.264Z,1012
2023-02-18T05:45:12.448Z,1012
2023-02-18T05:46:27.416Z,1012.1
2023-02-18T05:47:42.866Z,1012
2023-02-18T05:48:59.062Z,1012
2023-02-18T05:50:15.253Z,1012
2023-02-18T05:51:31.195Z,1012
2023-02-18T05:52:47.630Z,1012
2023-02-18T05:54:03.808Z,1012
2023-02-18T05:55:20.000Z,1011.9
2023-02-18T05:56:36.193Z,1012
2023-02-18T05:57:52.375Z,1012
2023-02-18T05:59:08.318Z,1012
2023-02-18T06:00:24.753Z,1011.9
2023-02-18T06:01:40.943Z,1012
2023-02-18T06:02:56.895Z,1012
2023-02-18T06:04:12.349Z,1012
2023-02-18T06:05:28.283Z,1012.1
2023-02-18T06:06:44.485Z,1012.1
2023-02-18T06:08:00.920Z,1012.1
2023-02-18T06:09:17.107Z,1012
2023-02-18T06:10:33.291Z,1012
2023-02-18T06:11:49.489Z,1012
2023-02-18T06:13:04.702Z,1012.1
2023-02-18T06:14:19.660Z,1012.1
2023-02-18T06:15:35.128Z,1012.1
2023-02-18T06:16:50.325Z,1012.1
2023-02-18T06:18:06.257Z,1012.1
2023-02-18T06:19:22.454Z,1012.1
2023-02-18T06:20:37.918Z,1012.1
2023-02-18T06:21:52.870Z,1012.1
2023-02-18T06:23:09.071Z,1012
2023-02-18T06:24:25.499Z,1012
2023-02-18T06:25:41.697Z,1012
2023-02-18T06:26:57.892Z,1012
2023-02-18T06:28:13.818Z,1012
2023-02-18T06:29:30.007Z,1012
2023-02-18T06:30:46.448Z,1012
2023-02-18T06:32:02.643Z,1012
2023-02-18T06:33:18.579Z,1012
2023-02-18T06:34:34.756Z,1012.1
2023-02-18T06:35:51.200Z,1012
2023-02-18T06:37:07.395Z,1012
2023-02-18T06:38:23.697Z,1012.1
2023-02-18T06:39:39.633Z,1012.1
2023-02-18T06:40:56.087Z,1012.1
2023-02-18T06:42:12.283Z,1012
2023-02-18T06:43:28.453Z,1012
2023-02-18T06:44:44.405Z,1011.9
2023-02-18T06:46:00.846Z,1012
2023-02-18T06:47:16.065Z,1011.9
2023-02-18T06:48:31.266Z,1012
2023-02-18T06:49:46.481Z,1011.9
2023-02-18T06:51:01.689Z,1011.9
2023-02-18T06:52:17.626Z,1011.9
2023-02-18T06:53:34.058Z,1011.9
2023-02-18T06:54:50.261Z,1011.9
2023-02-18T06:56:06.186Z,1011.9
2023-02-18T06:57:22.633Z,1011.9
2023-02-18T06:58:37.595Z,1011.8
2023-02-18T06:59:53.772Z,1011.8
2023-02-18T07:01:10.230Z,1011.9
2023-02-18T07:02:26.421Z,1011.9
2023-02-18T07:03:42.608Z,1011.9
2023-02-18T07:04:58.794Z,1011.9
2023-02-18T07:06:14.984Z,1011.8
2023-02-18T07:07:30.905Z,1011.8
2023-02-18T07:08:47.357Z,1011.8
2023-02-18T07:10:03.546Z,1011.9
2023-02-18T07:11:19.745Z,1011.8
2023-02-18T07:12:35.932Z,1011.8
2023-02-18T07:13:52.122Z,1011.8
2023-02-18T07:15:07.067Z,1011.7
2023-02-18T07:16:22.271Z,1011.7
2023-02-18T07:17:37.736Z,1011.8
2023-02-18T07:18:53.940Z,1011.7
2023-02-18T07:20:10.126Z,1011.7
2023-02-18T07:21:26.302Z,1011.8
2023-02-18T07:22:42.243Z,1011.8
2023-02-18T07:23:58.704Z,1011.8
2023-02-18T07:25:14.884Z,1011.7
2023-02-18T07:26:31.067Z,1011.8
2023-02-18T07:27:46.996Z,1011.7
2023-02-18T07:29:03.173Z,1011.8
2023-02-18T07:30:19.367Z,1011.7
2023-02-18T07:31:35.820Z,1011.7
2023-02-18T07:32:52.009Z,1011.6
2023-02-18T07:34:06.946Z,1011.6
2023-02-18T07:35:23.419Z,1011.7
2023-02-18T07:36:39.604Z,1011.6
2023-02-18T07:37:55.530Z,1011.6
2023-02-18T07:39:11.987Z,1011.7
2023-02-18T07:40:28.173Z,1011.7
2023-02-18T07:41:44.098Z,1011.7
2023-02-18T07:42:59.297Z,1011.7
2023-02-18T07:44:14.774Z,1011.7
2023-02-18T07:45:30.706Z,1011.7
2023-02-18T07:46:46.887Z,1011.6
2023-02-18T07:48:03.352Z,1011.6
2023-02-18T07:49:19.546Z,1011.5
2023-02-18T07:50:35.719Z,1011.5
2023-02-18T07:51:51.922Z,1011.5
2023-02-18T07:53:07.833Z,1011.5
2023-02-18T07:54:24.295Z,1011.4
2023-02-18T07:55:40.221Z,1011.4
2023-02-18T07:56:56.663Z,1011.4
2023-02-18T07:58:12.855Z,1011.5
2023-02-18T07:59:28.774Z,1011.5
2023-02-18T08:00:43.977Z,1011.4
2023-02-18T08:02:00.443Z,1011.4
2023-02-18T08:03:16.632Z,1011.4
2023-02-18T08:04:32.830Z,1011.4
2023-02-18T08:05:49.023Z,1011.4
2023-02-18T08:07:05.207Z,1011.5
2023-02-18T08:08:21.111Z,1011.5
2023-02-18T08:09:36.617Z,1011.5
2023-02-18T08:10:51.811Z,1011.5
2023-02-18T08:12:07.027Z,1011.4
2023-02-18T08:13:22.228Z,1011.3
2023-02-18T08:14:38.418Z,1011.3
2023-02-18T08:15:54.343Z,1011.3
2023-02-18T08:17:10.804Z,1011.2
2023-02-18T08:18:26.995Z,1011.2
2023-02-18T08:19:43.186Z,1011.2
2023-02-18T08:20:59.096Z,1011.2
2023-02-18T08:22:15.568Z,1011.3
2023-02-18T08:23:31.482Z,1011.2
2023-02-18T08:24:47.938Z,1011.2
2023-02-18T08:26:04.134Z,1011.2
2023-02-18T08:27:20.314Z,1011.1
2023-02-18T08:28:36.516Z,1011.1
2023-02-18T08:29:51.713Z,1011.1
2023-02-18T08:31:07.616Z,1011.1
2023-02-18T08:32:24.082Z,1011.1
2023-02-18T08:33:39.995Z,1011.1
2023-02-18T08:34:56.472Z,1011
2023-02-18T08:36:12.375Z,1011.1
2023-02-18T08:37:28.847Z,1011
2023-02-18T08:38:43.790Z,1010.9
2023-02-18T08:40:00.368Z,1011
2023-02-18T08:41:15.583Z,1011
2023-02-18T08:42:30.792Z,1011
2023-02-18T08:43:46.710Z,1010.9
2023-02-18T08:45:03.167Z,1011
2023-02-18T08:46:19.084Z,1010.9
2023-02-18T08:47:35.560Z,1011
2023-02-18T08:48:51.735Z,1011
2023-02-18T08:50:07.656Z,1011
2023-02-18T08:51:24.124Z,1010.9
2023-02-18T08:52:40.307Z,1010.9
2023-02-18T08:53:56.223Z,1010.9
2023-02-18T08:55:12.695Z,1010.9
2023-02-18T08:56:28.595Z,1010.9
2023-02-18T08:57:45.069Z,1010.9
2023-02-18T08:59:00.001Z,1010.8
2023-02-18T09:00:16.463Z,1010.9
2023-02-18T09:01:32.376Z,1010.8
2023-02-18T09:02:48.560Z,1010.8
2023-02-18T09:04:05.040Z,1010.8
2023-02-18T09:05:21.223Z,1010.8
2023-02-18T09:06:37.405Z,1010.8
2023-02-18T09:07:52.626Z,1010.7
2023-02-18T09:09:07.536Z,1010.7
2023-02-18T09:10:23.054Z,1010.8
2023-02-18T09:11:38.263Z,1010.8
2023-02-18T09:12:53.480Z,1010.7
2023-02-18T09:14:08.688Z,1010.6
2023-02-18T09:15:24.587Z,1010.5
2023-02-18T09:16:40.765Z,1010.5
2023-02-18T09:17:57.243Z,1010.5
2023-02-18T09:19:13.433Z,1010.5
2023-02-18T09:20:29.616Z,1010.5
2023-02-18T09:21:45.529Z,1010.5
2023-02-18T09:23:01.993Z,1010.4
2023-02-18T09:24:17.908Z,1010.4
2023-02-18T09:25:34.378Z,1010.3
2023-02-18T09:26:50.573Z,1010.4
2023-02-18T09:28:06.762Z,1010.3
2023-02-18T09:29:22.956Z,1010.3
2023-02-18T09:30:38.161Z,1010.4
2023-02-18T09:31:54.052Z,1010.3
2023-02-18T09:33:10.536Z,1010.3
2023-02-18T09:34:26.425Z,1010.3
2023-02-18T09:35:42.911Z,1010.2
2023-02-18T09:36:59.099Z,1010.3
2023-02-18T09:38:14.999Z,1010.3
2023-02-18T09:39:30.208Z,1010.2
2023-02-18T09:40:45.425Z,1010.2
2023-02-18T09:42:01.910Z,1010.2
2023-02-18T09:43:18.084Z,1010.1
2023-02-18T09:44:34.285Z,1010.1
2023-02-18T09:45:50.460Z,1010.2
2023-02-18T09:47:06.365Z,1010.1
2023-02-18T09:48:22.839Z,1009.9
2023-02-18T09:49:39.028Z,1009.9
2023-02-18T09:50:55.220Z,1009.9
2023-02-18T09:52:11.425Z,1009.8
2023-02-18T09:53:27.307Z,1009.8
2023-02-18T09:54:43.499Z,1009.9
2023-02-18T09:55:59.991Z,1009.8
2023-02-18T09:57:15.192Z,1009.7
2023-02-18T09:58:31.386Z,1009.6
2023-02-18T09:59:47.575Z,1009.6
2023-02-18T10:01:03.757Z,1009.6
2023-02-18T10:02:19.646Z,1009.5
2023-02-18T10:03:36.140Z,1009.5
2023-02-18T10:04:52.320Z,1009.4
2023-02-18T10:06:07.240Z,1009.3
2023-02-18T10:07:22.448Z,1009.3
2023-02-18T10:08:37.967Z,1009.5
2023-02-18T10:09:52.866Z,1009.4
2023-02-18T10:11:09.357Z,1009.4
2023-02-18T10:12:25.540Z,1009.5
2023-02-18T10:13:41.738Z,1009.3
2023-02-18T10:14:57.928Z,1009.4
2023-02-18T10:16:14.117Z,1009.4
2023-02-18T10:17:30.007Z,1009.4
2023-02-18T10:18:46.199Z,1009.3
2023-02-18T10:20:02.687Z,1009.4
2023-02-18T10:21:18.863Z,1009.3
2023-02-18T10:22:35.061Z,1009.3
2023-02-18T10:23:51.253Z,1009.2
2023-02-18T10:25:07.443Z,1009.1
2023-02-18T10:26:22.638Z,1009.1
2023-02-18T10:27:38.833Z,1009.1
2023-02-18T10:28:55.027Z,1009
2023-02-18T10:30:10.910Z,1009
2023-02-18T10:31:27.099Z,1008.9
2023-02-18T10:32:43.293Z,1008.9
2023-02-18T10:33:59.488Z,1008.8
2023-02-18T10:35:14.995Z,1008.8
2023-02-18T10:36:29.907Z,1008.7
2023-02-18T10:37:45.118Z,1008.7
2023-02-18T10:39:00.630Z,1008.6
2023-02-18T10:40:15.535Z,1008.7
2023-02-18T10:41:31.047Z,1008.5
2023-02-18T10:42:46.000Z,1008.6
2023-02-18T10:44:01.167Z,1008.5
2023-02-18T10:45:17.652Z,1008.4
2023-02-18T10:46:33.851Z,1008.3
2023-02-18T10:47:49.726Z,1008.3
2023-02-18T10:49:06.216Z,1008.2
2023-02-18T10:50:22.415Z,1008.1
2023-02-18T10:51:38.608Z,1008.1
2023-02-18T10:52:54.784Z,1008.1
2023-02-18T10:54:10.985Z,1008.1
2023-02-18T10:55:26.862Z,1008
2023-02-18T10:56:43.350Z,1008
2023-02-18T10:57:59.537Z,1008.1
2023-02-18T10:59:15.726Z,1007.9
2023-02-18T11:00:30.923Z,1007.9
2023-02-18T11:01:47.109Z,1007.9
2023-02-18T11:03:03.003Z,1007.9
2023-02-18T11:04:19.490Z,1007.8
2023-02-18T11:05:35.678Z,1007.8
2023-02-18T11:06:51.875Z,1007.7
2023-02-18T11:08:08.064Z,1007.7
2023-02-18T11:09:22.949Z,1007.6
2023-02-18T11:10:38.164Z,1007.6
2023-02-18T11:11:53.696Z,1007.5
2023-02-18T11:13:08.903Z,1007.4
2023-02-18T11:14:25.075Z,1007.4
2023-02-18T11:15:40.957Z,1007.3
2023-02-18T11:16:57.461Z,1007.2
2023-02-18T11:18:13.336Z,1007.2
2023-02-18T11:19:29.514Z,1007.1
2023-02-18T11:20:45.701Z,1007
2023-02-18T11:22:01.894Z,1007.1
2023-02-18T11:23:18.401Z,1007
2023-02-18T11:24:34.578Z,1006.9
2023-02-18T11:25:50.453Z,1007
2023-02-18T11:27:06.967Z,1006.9
2023-02-18T11:28:23.154Z,1006.9
2023-02-18T11:29:38.350Z,1006.9
2023-02-18T11:30:54.229Z,1006.8
2023-02-18T11:32:10.733Z,1006.8
2023-02-18T11:33:26.584Z,1006.8
2023-02-18T11:34:42.782Z,1006.7
2023-02-18T11:35:59.279Z,1006.7
2023-02-18T11:37:15.465Z,1006.7
2023-02-18T11:38:30.680Z,1006.7
2023-02-18T11:39:45.897Z,1006.6
2023-02-18T11:41:00.786Z,1006.6
2023-02-18T11:42:16.301Z,1006.6
2023-02-18T11:43:32.175Z,1006.6
2023-02-18T11:44:48.360Z,1006.6
2023-02-18T11:46:04.874Z,1006.5
2023-02-18T11:47:21.063Z,1006.5
2023-02-18T11:48:36.929Z,1006.4
2023-02-18T11:49:53.442Z,1006.4
2023-02-18T11:51:09.295Z,1006.4
2023-02-18T11:52:25.817Z,1006.2
2023-02-18T11:53:41.987Z,1006.2
2023-02-18T11:54:57.851Z,1006.1
2023-02-18T11:56:14.047Z,1006
2023-02-18T11:57:30.234Z,1006.1
2023-02-18T11:58:45.757Z,1006.2
2023-02-18T12:00:01.623Z,1006.1
2023-02-18T12:01:18.129Z,1006.1
2023-02-18T12:02:34.326Z,1006
2023-02-18T12:03:50.191Z,1005.9
2023-02-18T12:05:06.709Z,1005.9
2023-02-18T12:06:22.884Z,1005.8
2023-02-18T12:07:38.099Z,1005.8
2023-02-18T12:08:52.981Z,1005.8
2023-02-18T12:10:09.489Z,1005.8
2023-02-18T12:11:25.364Z,1005.7
2023-02-18T12:12:41.533Z,1005.7
2023-02-18T12:13:58.063Z,1005.6
2023-02-18T12:15:14.252Z,1005.6
2023-02-18T12:16:30.100Z,1005.5
2023-02-18T12:17:46.616Z,1005.5
2023-02-18T12:19:02.487Z,1005.4
2023-02-18T12:20:18.983Z,1005.4
2023-02-18T12:21:35.171Z,1005.4
2023-02-18T12:22:51.048Z,1005.5
2023-02-18T12:24:07.565Z,1005.5
2023-02-18T12:25:22.439Z,1005.4
2023-02-18T12:26:38.622Z,1005.4
2023-02-18T12:27:55.140Z,1005.4
2023-02-18T12:29:10.987Z,1005.4
2023-02-18T12:30:27.500Z,1005.3
2023-02-18T12:31:43.697Z,1005.3
2023-02-18T12:32:59.879Z,1005.3
2023-02-18T12:34:14.777Z,1005.3
2023-02-18T12:35:30.298Z,1005.3
2023-02-18T12:36:45.518Z,1005.2
2023-02-18T12:38:00.393Z,1005.3
2023-02-18T12:39:16.909Z,1005.2
2023-02-18T12:40:32.124Z,1005.3
2023-02-18T12:41:47.315Z,1005.2
2023-02-18T12:43:03.509Z,1005.2
2023-02-18T12:44:19.693Z,1005.2
2023-02-18T12:45:35.892Z,1005.1
2023-02-18T12:46:52.083Z,1005
2023-02-18T12:48:08.265Z,1005
2023-02-18T12:49:24.124Z,1005
2023-02-18T12:50:40.641Z,1005
2023-02-18T12:51:56.817Z,1005
2023-02-18T12:53:13.007Z,1005
2023-02-18T12:54:29.195Z,1004.9
2023-02-18T12:55:45.390Z,1004.9
2023-02-18T12:57:01.577Z,1004.9
2023-02-18T12:58:16.776Z,1004.9
2023-02-18T12:59:32.638Z,1004.8
2023-02-18T13:00:49.162Z,1004.8
2023-02-18T13:02:04.996Z,1004.8
2023-02-18T13:03:21.525Z,1004.7
2023-02-18T13:04:37.385Z,1004.7
2023-02-18T13:05:53.558Z,1004.8
2023-02-18T13:07:09.121Z,1004.8
2023-02-18T13:08:24.326Z,1004.7
2023-02-18T13:09:39.545Z,1004.7
2023-02-18T13:10:54.742Z,1004.6
2023-02-18T13:12:09.606Z,1004.7
2023-02-18T13:13:25.147Z,1004.6
2023-02-18T13:14:41.011Z,1004.7
2023-02-18T13:15:57.527Z,1004.5
2023-02-18T13:17:13.719Z,1004.5
2023-02-18T13:18:29.909Z,1004.4
2023-02-18T13:19:45.751Z,1004.5
2023-02-18T13:21:02.276Z,1004.5
2023-02-18T13:22:18.469Z,1004.5
2023-02-18T13:23:34.652Z,1004.4
2023-02-18T13:24:50.496Z,1004.4
2023-02-18T13:26:07.036Z,1004.5
2023-02-18T13:27:22.874Z,1004.4
2023-02-18T13:28:39.413Z,1004.4
2023-02-18T13:29:54.607Z,1004.3
2023-02-18T13:31:10.796Z,1004.5
2023-02-18T13:32:26.978Z,1004.4
2023-02-18T13:33:43.171Z,1004.3
2023-02-18T13:34:59.022Z,1004.4
2023-02-18T13:36:15.548Z,1004.4
2023-02-18T13:37:31.735Z,1004.4
2023-02-18T13:38:46.602Z,1004.4
2023-02-18T13:40:02.148Z,1004.4
2023-02-18T13:41:17.026Z,1004.5
2023-02-18T13:42:32.233Z,1004.5
2023-02-18T13:43:48.760Z,1004.4
2023-02-18T13:45:04.937Z,1004.4
2023-02-18T13:46:21.141Z,1004.4
2023-02-18T13:47:37.318Z,1004.4
2023-02-18T13:48:53.509Z,1004.4
2023-02-18T13:50:09.352Z,1004.3
2023-02-18T13:51:25.875Z,1004.4
2023-02-18T13:52:42.080Z,1004.4
2023-02-18T13:53:57.908Z,1004.4
2023-02-18T13:55:14.451Z,1004.4
2023-02-18T13:56:30.286Z,1004.4
2023-02-18T13:57:46.473Z,1004.4
2023-02-18T13:59:02.024Z,1004.4
2023-02-18T14:00:17.874Z,1004.5
2023-02-18T14:01:34.057Z,1004.3
2023-02-18T14:02:50.250Z,1004.5
2023-02-18T14:04:06.421Z,1004.5
2023-02-18T14:05:22.616Z,1004.4
2023-02-18T14:06:39.157Z,1004.3
2023-02-18T14:07:54.360Z,1004.3
2023-02-18T14:09:09.569Z,1004.3
2023-02-18T14:10:25.750Z,1004.3
2023-02-18T14:11:41.947Z,1004.3
2023-02-18T14:12:57.785Z,1004.3
2023-02-18T14:14:13.962Z,1004.3
2023-02-18T14:15:30.497Z,1004.2
2023-02-18T14:16:46.692Z,1004.3
2023-02-18T14:18:02.887Z,1004.3
2023-02-18T14:19:19.074Z,1004.2
2023-02-18T14:20:34.897Z,1004.3
2023-02-18T14:21:51.444Z,1004.3
2023-02-18T14:23:07.628Z,1004.3
2023-02-18T14:24:23.825Z,1004.3
2023-02-18T14:25:38.674Z,1004.3
2023-02-18T14:26:55.214Z,1004.4
2023-02-18T14:28:11.046Z,1004.4
2023-02-18T14:29:27.583Z,1004.4
2023-02-18T14:30:43.772Z,1004.4
2023-02-18T14:31:59.614Z,1004.3
2023-02-18T14:33:15.800Z,1004.3
2023-02-18T14:34:31.367Z,1004.3
2023-02-18T14:35:46.218Z,1004.4
2023-02-18T14:37:01.769Z,1004.2
2023-02-18T14:38:16.987Z,1004.4
2023-02-18T14:39:33.162Z,1004.3
2023-02-18T14:40:48.382Z,1004.3
2023-02-18T14:42:03.592Z,1004.2
2023-02-18T14:43:19.411Z,1004.2
2023-02-18T14:44:35.615Z,1004.1
2023-02-18T14:45:52.148Z,1004.2
2023-02-18T14:47:08.328Z,1004.4
2023-02-18T14:48:24.532Z,1004.2
2023-02-18T14:49:40.704Z,1004.3
2023-02-18T14:50:56.808Z,1004.1
2023-02-18T14:52:12.983Z,1004.3
2023-02-18T14:53:29.272Z,1004.4
2023-02-18T14:54:45.359Z,1004.3
2023-02-18T14:56:01.554Z,1004.4
2023-02-18T14:57:17.736Z,1004.5
2023-02-18T14:58:32.942Z,1004.4
2023-02-18T14:59:49.221Z,1004.4
2023-02-18T15:01:05.411Z,1004.4
2023-02-18T15:02:21.594Z,1004.5
2023-02-18T15:03:37.680Z,1004.5
2023-02-18T15:04:53.868Z,1004.5
2023-02-18T15:06:10.056Z,1004.5
2023-02-18T15:07:25.384Z,1004.6
2023-02-18T15:08:40.581Z,1004.5
2023-02-18T15:09:56.776Z,1004.5
2023-02-18T15:11:12.952Z,1004.6
2023-02-18T15:12:28.176Z,1004.6
2023-02-18T15:13:43.263Z,1004.5
2023-02-18T15:14:59.567Z,1004.6
2023-02-18T15:16:15.762Z,1004.5
2023-02-18T15:17:31.940Z,1004.5
2023-02-18T15:18:48.028Z,1004.6
2023-02-18T15:20:04.317Z,1004.5
2023-02-18T15:21:20.390Z,1004.4
2023-02-18T15:22:36.584Z,1004.6
2023-02-18T15:23:52.874Z,1004.6
2023-02-18T15:25:09.061Z,1004.6
2023-02-18T15:26:25.149Z,1004.5
2023-02-18T15:27:40.462Z,1004.5
2023-02-18T15:28:56.539Z,1004.5
2023-02-18T15:30:12.829Z,1004.7
2023-02-18T15:31:29.029Z,1004.5
2023-02-18T15:32:45.204Z,1004.6
2023-02-18T15:34:01.410Z,1004.7
2023-02-18T15:35:17.478Z,1004.6
2023-02-18T15:36:33.670Z,1004.7
2023-02-18T15:37:49.957Z,1004.8
2023-02-18T15:39:05.169Z,1005
2023-02-18T15:40:20.376Z,1004.8
2023-02-18T15:41:36.564Z,1004.8
2023-02-18T15:42:52.644Z,1005
2023-02-18T15:44:08.836Z,1005
2023-02-18T15:45:25.014Z,1005
2023-02-18T15:46:41.318Z,1005
2023-02-18T15:47:57.400Z,1004.9
2023-02-18T15:49:13.688Z,1005.1
2023-02-18T15:50:29.890Z,1004.9
2023-02-18T15:51:45.947Z,1005.1
2023-02-18T15:53:02.262Z,1005.3
2023-02-18T15:54:18.435Z,1005.4
2023-02-18T15:55:34.509Z,1005.3
2023-02-18T15:56:49.716Z,1005.5